createdAt,value
2022-09-20T00:01:28.350Z,1.77
2022-09-20T00:03:58.312Z,1.80
2022-09-20T00:06:28.614Z,2.00
2022-09-20T00:08:57.814Z,2.10
2022-09-20T00:11:28.578Z,2.38
2022-09-20T00:13:59.444Z,2.05
2022-09-20T00:16:29.638Z,2.13
2022-09-20T00:19:00.069Z,2.30
2022-09-20T00:21:30.270Z,1.90
2022-09-20T00:23:58.700Z,2.40
2022-09-20T00:26:28.502Z,2.33
2022-09-20T00:28:59.450Z,2.50
2022-09-20T00:31:27.965Z,2.17
2022-09-20T00:34:14.369Z,2.30
2022-09-20T00:36:42.652Z,2.28
2022-09-20T00:39:13.314Z,2.15
2022-09-20T00:41:41.603Z,2.10
2022-09-20T00:44:43.205Z,1.95
2022-09-20T00:47:21.924Z,1.98
2022-09-20T00:49:51.219Z,2.03
2022-09-20T00:52:20.632Z,1.50
2022-09-20T00:54:49.458Z,1.90
2022-09-20T00:57:18.290Z,1.90
2022-09-20T00:59:49.272Z,1.80
2022-09-20T01:02:22.779Z,1.77
2022-09-20T01:04:51.459Z,2.20
2022-09-20T01:07:23.577Z,1.90
2022-09-20T01:09:52.373Z,2.17
2022-09-20T01:12:23.270Z,1.92
2022-09-20T01:14:53.349Z,1.98
2022-09-20T01:17:25.723Z,2.25
2022-09-20T01:20:09.208Z,2.58
2022-09-20T01:22:49.786Z,2.40
2022-09-20T01:25:28.703Z,2.58
2022-09-20T01:27:58.537Z,2.22
2022-09-20T01:30:32.957Z,1.95
2022-09-20T01:33:13.659Z,2.63
2022-09-20T01:35:45.681Z,2.20
2022-09-20T01:38:27.079Z,2.20
2022-09-20T01:41:05.232Z,1.75
2022-09-20T01:43:40.606Z,1.67
2022-09-20T01:46:30.100Z,1.85
2022-09-20T01:49:10.264Z,2.15
2022-09-20T01:52:12.451Z,1.88
2022-09-20T01:55:41.178Z,1.92
2022-09-20T01:58:39.048Z,2.30
2022-09-20T02:01:32.342Z,2.03
2022-09-20T02:04:18.453Z,2.00
2022-09-20T02:06:59.520Z,2.15
2022-09-20T02:09:58.477Z,1.75
2022-09-20T02:12:51.335Z,2.42
2022-09-20T02:15:44.880Z,2.10
2022-09-20T02:18:31.062Z,2.38
2022-09-20T02:21:05.388Z,1.92
2022-09-20T02:23:52.820Z,1.90
2022-09-20T02:26:40.510Z,1.98
2022-09-20T02:29:26.265Z,2.00
2022-09-20T02:32:15.457Z,1.83
2022-09-20T02:35:13.727Z,1.60
2022-09-20T02:38:07.682Z,1.80
2022-09-20T02:41:09.794Z,1.40
2022-09-20T02:43:45.951Z,1.48
2022-09-20T02:46:22.700Z,1.92
2022-09-20T02:48:59.251Z,1.50
2022-09-20T02:51:36.708Z,2.03
2022-09-20T02:54:15.423Z,1.50
2022-09-20T02:56:52.459Z,1.27
2022-09-20T02:59:30.760Z,1.58
2022-09-20T03:02:09.956Z,1.45
2022-09-20T03:04:56.622Z,1.42
2022-09-20T03:07:34.075Z,1.42
2022-09-20T03:10:13.970Z,1.58
2022-09-20T03:12:53.630Z,1.38
2022-09-20T03:15:30.811Z,1.17
2022-09-20T03:18:09.493Z,1.33
2022-09-20T03:20:47.492Z,1.75
2022-09-20T03:23:33.099Z,1.50
2022-09-20T03:26:09.557Z,1.65
2022-09-20T03:29:00.794Z,1.45
2022-09-20T03:31:51.264Z,1.58
2022-09-20T03:34:34.050Z,1.40
2022-09-20T03:37:22.782Z,1.40
2022-09-20T03:40:19.082Z,1.67
2022-09-20T03:42:49.965Z,1.10
2022-09-20T03:45:47.755Z,1.50
2022-09-20T03:48:51.834Z,1.45
2022-09-20T03:51:33.804Z,1.63
2022-09-20T03:54:44.358Z,1.70
2022-09-20T03:57:52.769Z,1.45
2022-09-20T04:00:24.669Z,1.58
2022-09-20T04:03:17.469Z,1.60
2022-09-20T04:05:56.855Z,1.55
2022-09-20T04:08:41.354Z,1.80
2022-09-20T04:11:18.104Z,1.40
2022-09-20T04:13:56.265Z,1.48
2022-09-20T04:16:36.347Z,2.05
2022-09-20T04:19:14.909Z,1.70
2022-09-20T04:21:49.603Z,1.77
2022-09-20T04:24:23.628Z,2.00
2022-09-20T04:26:57.302Z,1.65
2022-09-20T04:29:37.609Z,2.08
2022-09-20T04:32:16.601Z,1.65
2022-09-20T04:35:20.505Z,2.05
2022-09-20T04:37:49.325Z,1.88
2022-09-20T04:40:34.063Z,1.95
2022-09-20T04:43:35.337Z,2.00
2022-09-20T04:46:40.706Z,2.15
2022-09-20T04:49:42.237Z,2.10
2022-09-20T04:52:42.782Z,2.05
2022-09-20T04:55:45.914Z,2.28
2022-09-20T04:58:46.947Z,2.00
2022-09-20T05:01:55.711Z,2.33
2022-09-20T05:05:11.760Z,2.30
2022-09-20T05:08:25.602Z,2.63
2022-09-20T05:11:38.416Z,2.70
2022-09-20T05:14:59.869Z,2.58
2022-09-20T05:18:06.408Z,3.17
2022-09-20T05:21:01.517Z,3.25
2022-09-20T05:24:10.778Z,3.45
2022-09-20T05:26:53.948Z,3.17
2022-09-20T05:29:28.079Z,3.75
2022-09-20T05:32:05.071Z,3.03
2022-09-20T05:34:42.513Z,3.45
2022-09-20T05:37:19.144Z,3.40
2022-09-20T05:39:52.261Z,3.88
2022-09-20T05:42:28.715Z,3.13
2022-09-20T05:45:05.262Z,3.42
2022-09-20T05:47:41.370Z,3.92
2022-09-20T05:50:30.126Z,3.30
2022-09-20T05:53:07.674Z,3.20
2022-09-20T05:55:53.615Z,3.35
2022-09-20T05:58:38.766Z,3.42
2022-09-20T06:01:12.820Z,2.90
2022-09-20T06:03:46.612Z,3.53
2022-09-20T06:06:21.701Z,3.80
2022-09-20T06:09:13.412Z,3.55
2022-09-20T06:11:54.469Z,3.00
2022-09-20T06:14:34.642Z,3.30
2022-09-20T06:17:11.410Z,3.50
2022-09-20T06:19:46.548Z,2.90
2022-09-20T06:22:20.605Z,3.17
2022-09-20T06:24:53.165Z,2.70
2022-09-20T06:27:27.287Z,2.53
2022-09-20T06:30:01.057Z,3.03
2022-09-20T06:32:29.166Z,3.05
2022-09-20T06:35:02.489Z,2.80
2022-09-20T06:38:02.909Z,3.95
2022-09-20T06:40:57.692Z,3.00
2022-09-20T06:43:26.005Z,2.95
2022-09-20T06:45:54.184Z,3.20
2022-09-20T06:48:22.309Z,3.50
2022-09-20T06:50:52.377Z,2.90
2022-09-20T06:53:30.552Z,3.00
2022-09-20T06:55:59.063Z,3.10
2022-09-20T06:58:28.321Z,3.08
2022-09-20T07:00:56.563Z,2.95
2022-09-20T07:03:24.762Z,3.15
2022-09-20T07:05:55.256Z,3.42
2022-09-20T07:08:23.550Z,3.08
2022-09-20T07:10:52.242Z,3.28
2022-09-20T07:13:20.926Z,3.63
2022-09-20T07:15:49.010Z,3.20
2022-09-20T07:18:17.213Z,3.10
2022-09-20T07:20:45.245Z,3.13
2022-09-20T07:23:15.806Z,3.47
2022-09-20T07:25:44.041Z,3.40
2022-09-20T07:28:12.146Z,3.30
2022-09-20T07:30:40.254Z,3.22
2022-09-20T07:33:09.960Z,2.78
2022-09-20T07:35:38.036Z,2.45
2022-09-20T07:38:06.050Z,2.67
2022-09-20T07:40:35.539Z,2.42
2022-09-20T07:43:03.536Z,3.22
2022-09-20T07:45:32.211Z,2.80
2022-09-20T07:48:05.285Z,3.15
2022-09-20T07:50:33.844Z,3.50
2022-09-20T07:53:02.802Z,3.50
2022-09-20T07:55:31.039Z,3.95
2022-09-20T07:58:00.469Z,3.60
2022-09-20T08:00:28.453Z,2.90
2022-09-20T08:03:00.545Z,2.90
2022-09-20T08:05:28.580Z,3.78
2022-09-20T08:07:56.632Z,2.42
2022-09-20T08:10:25.363Z,2.20
2022-09-20T08:15:42.894Z,2.22
2022-09-20T08:18:11.931Z,2.00
2022-09-20T08:20:40.978Z,1.80
2022-09-20T08:23:22.891Z,1.83
2022-09-20T08:25:51.692Z,1.27
2022-09-20T08:28:19.780Z,1.50
2022-09-20T08:30:51.627Z,1.58
2022-09-20T08:33:19.894Z,1.05
2022-09-20T08:35:50.261Z,1.40
2022-09-20T08:41:13.307Z,1.10
2022-09-20T08:43:52.092Z,1.20
2022-09-20T08:46:28.855Z,1.20
2022-09-20T08:49:26.673Z,1.08
2022-09-20T08:51:58.104Z,1.50
2022-09-20T08:54:32.459Z,1.00
2022-09-20T08:57:07.310Z,1.40
2022-09-20T08:59:35.667Z,1.23
2022-09-20T09:02:05.172Z,0.90
2022-09-20T09:04:37.390Z,1.27
2022-09-20T09:07:06.005Z,1.20
2022-09-20T09:09:38.878Z,1.00
2022-09-20T09:12:20.460Z,1.00
2022-09-20T09:14:55.086Z,1.35
2022-09-20T09:17:27.999Z,1.20
2022-09-20T09:20:00.231Z,1.17
2022-09-20T09:22:45.575Z,1.27
2022-09-20T09:25:32.264Z,1.50
2022-09-20T09:28:03.226Z,1.67
2022-09-20T09:38:33.028Z,1.52
2022-09-20T09:45:29.274Z,1.45
2022-09-20T09:47:59.057Z,1.48
2022-09-20T09:50:31.630Z,1.45
2022-09-20T09:53:02.920Z,1.60
2022-09-20T10:07:09.902Z,1.58
2022-09-20T10:10:07.966Z,1.10
2022-09-20T10:13:18.929Z,1.30
2022-09-20T10:15:57.472Z,1.48
2022-09-20T10:18:44.409Z,1.60
2022-09-20T10:21:25.877Z,1.58
2022-09-20T10:24:04.854Z,1.40
2022-09-20T10:27:19.328Z,1.30
2022-09-20T10:30:03.731Z,1.73
2022-09-20T10:32:49.998Z,1.35
2022-09-20T10:35:26.323Z,1.55
2022-09-20T10:38:09.665Z,1.40
2022-09-20T10:41:08.203Z,1.52
2022-09-20T10:43:54.008Z,1.30
2022-09-20T10:46:33.504Z,1.10
2022-09-20T10:49:18.327Z,1.50
2022-09-20T10:52:01.896Z,1.50
2022-09-20T10:54:39.574Z,1.23
2022-09-20T10:57:26.295Z,1.33
2022-09-20T11:00:03.558Z,1.13
2022-09-20T11:02:45.440Z,1.40
2022-09-20T11:05:25.489Z,1.52
2022-09-20T11:08:00.689Z,1.80
2022-09-20T11:10:36.189Z,1.40
2022-09-20T11:13:12.678Z,1.42
2022-09-20T11:15:44.684Z,1.30
2022-09-20T11:18:23.182Z,1.23
2022-09-20T11:20:57.709Z,1.33
2022-09-20T11:23:31.455Z,1.48
2022-09-20T11:26:07.086Z,1.38
2022-09-20T11:28:41.851Z,1.33
2022-09-20T11:31:15.829Z,1.30
2022-09-20T11:33:48.169Z,1.17
2022-09-20T11:36:21.334Z,1.58
2022-09-20T11:38:54.288Z,1.50
2022-09-20T11:41:27.553Z,1.38
2022-09-20T11:44:01.175Z,1.20
2022-09-20T11:46:33.729Z,1.35
2022-09-20T11:49:07.849Z,1.40
2022-09-20T11:52:14.812Z,1.48
2022-09-20T11:55:05.612Z,1.30
2022-09-20T11:57:33.881Z,1.38
2022-09-20T12:00:07.553Z,1.60
2022-09-20T12:02:49.710Z,1.33
2022-09-20T12:05:28.586Z,1.40
2022-09-20T12:08:01.658Z,1.17
2022-09-20T12:10:34.711Z,1.38
2022-09-20T12:13:05.692Z,1.60
2022-09-20T12:15:39.067Z,1.35
2022-09-20T12:18:28.284Z,1.42
2022-09-20T12:21:07.026Z,1.70
2022-09-20T12:24:03.466Z,1.33
2022-09-20T12:26:40.560Z,1.80
2022-09-20T12:29:57.362Z,1.20
2022-09-20T12:32:49.110Z,1.30
2022-09-20T12:35:57.900Z,1.08
2022-09-20T12:38:37.541Z,1.30
2022-09-20T12:41:17.112Z,1.50
2022-09-20T12:43:55.653Z,1.38
2022-09-20T12:46:31.002Z,1.77
2022-09-20T12:49:41.448Z,0.98
2022-09-20T12:52:45.728Z,1.17
2022-09-20T12:55:29.953Z,1.30
2022-09-20T12:58:02.092Z,2.83
2022-09-20T13:00:38.985Z,4.18
2022-09-20T13:03:28.548Z,2.22
2022-09-20T13:06:26.826Z,1.60
2022-09-20T13:09:06.010Z,2.17
2022-09-20T13:11:42.594Z,1.70
2022-09-20T13:14:15.528Z,1.30
2022-09-20T13:16:52.305Z,1.48
2022-09-20T13:19:23.588Z,1.60
2022-09-20T13:21:58.148Z,1.08
2022-09-20T13:24:29.027Z,1.67
2022-09-20T13:27:02.906Z,1.63
2022-09-20T13:29:35.382Z,1.67
2022-09-20T13:32:17.322Z,1.90
2022-09-20T13:34:45.668Z,1.33
2022-09-20T13:37:22.286Z,1.48
2022-09-20T13:39:54.913Z,1.42
2022-09-20T13:42:23.421Z,1.52
2022-09-20T13:44:52.094Z,1.50
2022-09-20T13:47:27.870Z,1.90
2022-09-20T13:50:02.330Z,1.50
2022-09-20T13:52:33.137Z,1.27
2022-09-20T13:55:01.292Z,1.10
2022-09-20T13:57:31.108Z,1.10
2022-09-20T14:00:01.726Z,1.05
2022-09-20T14:02:40.472Z,1.30
2022-09-20T14:05:15.435Z,1.23
2022-09-20T14:07:48.042Z,1.02
2022-09-20T14:10:34.649Z,1.10
2022-09-20T14:13:04.968Z,0.95
2022-09-20T14:15:38.515Z,0.88
2022-09-20T14:18:08.725Z,1.02
2022-09-20T14:20:37.036Z,0.98
2022-09-20T14:23:06.504Z,0.80
2022-09-20T14:25:35.445Z,0.77
2022-09-20T14:28:09.072Z,0.90
2022-09-20T14:30:38.615Z,0.73
2022-09-20T14:33:08.327Z,0.73
2022-09-20T14:35:36.423Z,1.00
2022-09-20T14:38:11.550Z,1.27
2022-09-20T14:40:44.372Z,1.00
2022-09-20T14:43:25.281Z,0.40
2022-09-20T14:45:56.325Z,0.80
2022-09-20T14:48:37.055Z,0.77
2022-09-20T14:51:23.146Z,0.95
2022-09-20T14:53:54.899Z,0.90
2022-09-20T14:56:35.091Z,1.00
2022-09-20T14:59:20.366Z,1.10
2022-09-20T15:02:02.654Z,1.23
2022-09-20T15:04:32.749Z,0.80
2022-09-20T15:07:05.158Z,1.05
2022-09-20T15:09:35.251Z,1.05
2022-09-20T15:12:05.285Z,0.80
2022-09-20T15:14:37.561Z,0.73
2022-09-20T15:17:06.789Z,0.68
2022-09-20T15:19:35.223Z,0.90
2022-09-20T15:22:03.737Z,1.08
2022-09-20T15:24:31.823Z,1.00
2022-09-20T15:27:01.238Z,0.98
2022-09-20T15:29:29.332Z,1.10
2022-09-20T15:31:57.385Z,0.80
2022-09-20T15:34:25.478Z,1.15
2022-09-20T15:36:54.234Z,1.20
2022-09-20T15:39:23.768Z,1.20
2022-09-20T15:41:53.278Z,1.30
2022-09-20T15:44:22.873Z,1.23
2022-09-20T15:46:53.210Z,1.70
2022-09-20T15:49:21.851Z,1.45
2022-09-20T15:51:50.521Z,1.42
2022-09-20T15:54:18.547Z,1.45
2022-09-20T15:56:46.583Z,1.67
2022-09-20T15:59:16.085Z,1.58
2022-09-20T16:01:48.150Z,1.52
2022-09-20T16:04:19.107Z,1.55
2022-09-20T16:06:49.490Z,1.50
2022-09-20T16:09:19.001Z,1.58
2022-09-20T16:11:47.392Z,1.58
2022-09-20T16:14:15.941Z,1.30
2022-09-20T16:16:45.527Z,1.38
2022-09-20T16:19:20.517Z,1.38
2022-09-20T16:21:55.154Z,1.38
2022-09-20T16:24:26.973Z,1.58
2022-09-20T16:26:55.453Z,1.55
2022-09-20T16:29:25.140Z,1.35
2022-09-20T16:31:55.692Z,1.25
2022-09-20T16:34:29.742Z,1.40
2022-09-20T16:36:59.673Z,1.38
2022-09-20T16:39:28.936Z,1.20
2022-09-20T16:41:59.025Z,1.40
2022-09-20T16:44:27.062Z,1.17
2022-09-20T16:46:56.434Z,1.55
2022-09-20T16:49:24.694Z,1.50
2022-09-20T16:51:52.736Z,1.50
2022-09-20T16:54:21.344Z,1.30
2022-09-20T16:56:50.669Z,1.60
2022-09-20T16:59:21.356Z,1.27
2022-09-20T17:01:50.380Z,1.27
2022-09-20T17:04:21.088Z,1.63
2022-09-20T17:06:51.430Z,1.90
2022-09-20T17:09:29.113Z,1.58
2022-09-20T17:11:57.360Z,1.40
2022-09-20T17:14:25.505Z,1.60
2022-09-20T17:16:53.610Z,1.50
2022-09-20T17:19:23.015Z,1.40
2022-09-20T17:21:51.720Z,1.50
2022-09-20T17:24:21.080Z,1.98
2022-09-20T17:26:50.339Z,2.10
2022-09-20T17:29:19.496Z,2.00
2022-09-20T17:31:53.965Z,1.88
2022-09-20T17:34:25.454Z,1.67
2022-09-20T17:36:55.046Z,1.90
2022-09-20T17:39:23.277Z,1.60
2022-09-20T17:41:52.628Z,1.70
2022-09-20T17:44:21.360Z,1.40
2022-09-20T17:46:54.227Z,1.27
2022-09-20T17:49:26.123Z,1.88
2022-09-20T17:51:55.616Z,1.50
2022-09-20T17:54:25.027Z,1.30
2022-09-20T17:56:55.943Z,1.45
2022-09-20T17:59:24.977Z,1.58
2022-09-20T18:01:54.430Z,1.30
2022-09-20T18:04:25.076Z,1.88
2022-09-20T18:06:54.665Z,1.80
2022-09-20T18:09:24.986Z,1.92
2022-09-20T18:11:54.702Z,1.33
2022-09-20T18:14:30.191Z,1.40
2022-09-20T18:17:11.470Z,1.80
2022-09-20T18:19:59.926Z,1.60
2022-09-20T18:22:31.635Z,1.45
2022-09-20T18:25:02.719Z,1.52
2022-09-20T18:27:34.174Z,1.88
2022-09-20T18:33:10.295Z,1.50
2022-09-20T18:36:58.891Z,1.50
2022-09-20T18:39:30.151Z,1.75
2022-09-20T18:42:00.068Z,1.80
2022-09-20T18:44:33.675Z,1.70
2022-09-20T18:47:03.779Z,1.80
2022-09-20T18:49:32.455Z,1.77
2022-09-20T18:52:00.538Z,1.92
2022-09-20T18:54:33.561Z,1.77
2022-09-20T18:57:02.441Z,1.63
2022-09-20T18:59:30.909Z,1.60
2022-09-20T19:02:37.219Z,1.70
2022-09-20T19:05:14.955Z,1.45
2022-09-20T19:07:52.586Z,1.90
2022-09-20T19:10:28.343Z,2.03
2022-09-20T19:13:01.996Z,1.35
2022-09-20T19:15:42.373Z,1.95
2022-09-20T19:18:24.804Z,1.38
2022-09-20T19:21:00.636Z,1.60
2022-09-20T19:23:46.250Z,2.13
2022-09-20T19:26:21.910Z,1.83
2022-09-20T19:28:51.463Z,2.20
2022-09-20T19:31:24.781Z,2.10
2022-09-20T19:33:55.018Z,1.75
2022-09-20T19:36:24.063Z,1.90
2022-09-20T19:39:05.360Z,2.10
2022-09-20T19:41:47.290Z,2.00
2022-09-20T19:44:28.822Z,1.90
2022-09-20T19:47:12.853Z,2.42
2022-09-20T19:49:51.215Z,2.03
2022-09-20T19:52:19.854Z,2.45
2022-09-20T19:54:48.544Z,2.40
2022-09-20T19:57:21.987Z,2.40
2022-09-20T19:59:51.203Z,2.67
2022-09-20T20:02:19.990Z,2.85
2022-09-20T20:04:48.654Z,2.47
2022-09-20T20:07:31.146Z,3.35
2022-09-20T20:10:07.040Z,2.42
2022-09-20T20:20:52.257Z,2.70
2022-09-20T20:23:41.283Z,2.90
2022-09-20T20:26:10.885Z,3.22
2022-09-20T20:28:45.763Z,2.60
2022-09-20T20:31:17.390Z,2.63
2022-09-20T20:34:13.155Z,2.50
2022-09-20T20:36:41.334Z,2.65
2022-09-20T20:39:15.846Z,2.30
2022-09-20T20:41:44.658Z,3.03
2022-09-20T20:44:15.595Z,2.30
2022-09-20T20:46:43.998Z,2.70
2022-09-20T20:49:12.336Z,2.70
2022-09-20T20:51:41.079Z,2.85
2022-09-20T20:54:10.148Z,2.80
2022-09-20T20:56:38.466Z,2.25
2022-09-20T20:59:06.998Z,2.85
2022-09-20T21:01:38.680Z,2.72
2022-09-20T21:04:07.929Z,2.67
2022-09-20T21:06:37.678Z,2.90
2022-09-20T21:09:06.741Z,3.35
2022-09-20T21:11:37.047Z,3.13
2022-09-20T21:14:07.467Z,3.47
2022-09-20T21:16:39.631Z,3.08
2022-09-20T21:19:09.588Z,3.28
2022-09-20T21:21:40.177Z,3.60
2022-09-20T21:24:10.267Z,3.30
2022-09-20T21:26:39.450Z,3.38
2022-09-20T21:29:09.106Z,4.03
2022-09-20T21:31:40.353Z,3.40
2022-09-20T21:34:10.112Z,4.05
2022-09-20T21:36:41.557Z,4.15
2022-09-20T21:39:10.210Z,4.32
2022-09-20T21:41:39.928Z,4.60
2022-09-20T21:44:12.260Z,4.25
2022-09-20T21:46:43.325Z,4.38
2022-09-20T21:49:13.200Z,4.63
2022-09-20T21:51:43.980Z,3.97
2022-09-20T21:54:12.442Z,3.95
2022-09-20T21:56:41.582Z,4.13
2022-09-20T21:59:10.262Z,4.18
2022-09-20T22:01:41.446Z,3.60
2022-09-20T22:04:11.270Z,3.97
2022-09-20T22:06:41.323Z,4.70
2022-09-20T22:09:11.270Z,4.38
2022-09-20T22:11:42.053Z,4.55
2022-09-20T22:14:11.162Z,4.93
2022-09-20T22:16:42.373Z,3.90
2022-09-20T22:19:14.012Z,3.92
2022-09-20T22:21:43.952Z,4.13
2022-09-20T22:24:13.706Z,4.13
2022-09-20T22:26:43.739Z,3.97
2022-09-20T22:29:12.575Z,4.13
2022-09-20T22:31:46.154Z,4.22
2022-09-20T22:34:16.918Z,3.97
2022-09-20T22:36:45.698Z,4.20
2022-09-20T22:39:14.652Z,4.07
2022-09-20T22:41:44.589Z,4.40
2022-09-20T22:44:13.181Z,4.18
2022-09-20T22:46:42.860Z,3.97
2022-09-20T22:49:11.572Z,3.72
2022-09-20T22:51:40.170Z,4.05
2022-09-20T22:54:10.371Z,3.83
2022-09-20T22:56:39.705Z,4.18
2022-09-20T22:59:09.235Z,4.82
2022-09-20T23:01:38.947Z,4.10
2022-09-20T23:04:10.233Z,4.20
2022-09-20T23:06:41.166Z,4.22
2022-09-20T23:09:11.676Z,4.53
2022-09-20T23:11:42.136Z,4.38
2022-09-20T23:14:12.797Z,4.13
2022-09-20T23:16:41.910Z,3.97
2022-09-20T23:19:12.059Z,3.40
2022-09-20T23:21:41.827Z,3.88
2022-09-20T23:24:11.767Z,3.25
2022-09-20T23:26:41.675Z,3.80
2022-09-20T23:29:12.096Z,3.85
2022-09-20T23:31:45.269Z,3.13
2022-09-20T23:34:17.516Z,3.78
2022-09-20T23:36:46.654Z,3.40
2022-09-20T23:39:15.542Z,3.72
2022-09-20T23:41:48.567Z,3.63
2022-09-20T23:44:19.606Z,3.35
2022-09-20T23:46:47.983Z,3.40
2022-09-20T23:49:17.712Z,3.33
2022-09-20T23:51:45.970Z,3.25
2022-09-20T23:54:14.278Z,4.13
2022-09-20T23:56:42.873Z,3.20
2022-09-20T23:59:11.171Z,3.25
